Time;durP1;ratioP1;P1;durP2;ratioP2;P2;SDS_P1;SDS_P2;PMS_P1;PMS_P2;Temp;Humidity;BMP_temperature;BMP_pressure;BME280_temperature;BME280_humidity;BME280_pressure;Samples;Min_cycle;Max_cycle;Signal;HPM_P1;HPM_P2
2022/06/06 00:00:44;;;;;;;3.50;3.03;;;16.00;99.90;;;;;;5070961;28;20539;-69
2022/06/06 00:03:11;;;;;;;4.20;3.07;;;16.00;99.90;;;;;;5071929;28;20512;-70
2022/06/06 00:05:42;;;;;;;5.30;3.20;;;15.90;99.90;;;;;;5071474;28;20451;-69
2022/06/06 00:08:09;;;;;;;4.30;2.90;;;15.90;99.90;;;;;;5071672;28;20439;-70
2022/06/06 00:10:36;;;;;;;4.23;3.30;;;15.90;99.90;;;;;;5070752;28;20473;-70
2022/06/06 00:13:03;;;;;;;7.10;3.23;;;15.80;99.90;;;;;;5071787;28;20443;-70
2022/06/06 00:15:31;;;;;;;5.00;3.50;;;15.70;99.90;;;;;;5071397;28;20453;-70
2022/06/06 00:17:58;;;;;;;3.50;3.13;;;15.70;99.90;;;;;;5071584;28;20451;-70
2022/06/06 00:20:25;;;;;;;5.03;3.27;;;15.60;99.90;;;;;;5070569;28;20479;-69
2022/06/06 00:22:52;;;;;;;4.60;3.10;;;15.60;99.90;;;;;;5071335;28;20458;-70
2022/06/06 00:25:19;;;;;;;3.90;3.40;;;15.60;99.90;;;;;;5070890;28;20949;-70
2022/06/06 00:27:46;;;;;;;10.43;5.10;;;15.50;99.90;;;;;;5071443;28;20447;-70
2022/06/06 00:30:13;;;;;;;3.63;3.10;;;15.50;99.90;;;;;;5070589;28;20446;-69
2022/06/06 00:35:25;;;;;;;4.53;3.63;;;15.30;99.90;;;;;;5070796;28;20506;-69
2022/06/06 00:37:53;;;;;;;4.40;3.90;;;15.30;99.90;;;;;;5071297;28;20447;-70
2022/06/06 00:40:22;;;;;;;6.33;4.10;;;15.30;99.90;;;;;;5070365;28;20482;-70
2022/06/06 00:42:49;;;;;;;6.27;3.23;;;15.20;99.90;;;;;;5071113;28;20538;-70
2022/06/06 00:45:33;;;;;;;4.73;4.30;;;15.20;99.90;;;;;;5070662;28;20455;-70
2022/06/06 00:48:15;;;;;;;5.27;4.10;;;15.10;99.90;;;;;;5070827;28;20538;-70
2022/06/06 00:50:51;;;;;;;6.60;4.03;;;15.10;99.90;;;;;;5070211;28;20477;-70
2022/06/06 00:53:21;;;;;;;4.07;3.63;;;15.10;99.90;;;;;;5070885;28;20446;-70
2022/06/06 00:55:53;;;;;;;5.87;4.00;;;15.10;99.90;;;;;;5070546;28;20443;-70
2022/06/06 00:58:23;;;;;;;8.00;4.30;;;15.20;99.90;;;;;;5070767;28;20446;-70
2022/06/06 01:00:52;;;;;;;6.03;4.10;;;15.20;99.90;;;;;;5069587;28;20487;-70
2022/06/06 01:03:24;;;;;;;7.30;4.33;;;15.20;99.90;;;;;;5070574;28;20448;-68
2022/06/06 01:05:51;;;;;;;6.80;5.00;;;15.20;99.90;;;;;;5070337;28;20542;-70
2022/06/06 01:08:21;;;;;;;5.90;4.80;;;15.10;99.90;;;;;;5070552;28;20454;-70
2022/06/06 01:10:51;;;;;;;4.90;4.17;;;15.20;99.90;;;;;;5069484;28;20983;-70
2022/06/06 01:13:22;;;;;;;4.77;3.97;;;15.20;99.90;;;;;;5070501;28;20459;-70
2022/06/06 01:16:05;;;;;;;5.23;4.30;;;15.10;99.90;;;;;;5069973;28;20490;-70
2022/06/06 01:18:41;;;;;;;8.47;4.27;;;15.10;99.90;;;;;;5070311;28;20821;-70
2022/06/06 01:21:38;;;;;;;6.50;4.03;;;15.10;99.90;;;;;;5069343;28;20482;-70
2022/06/06 01:24:30;;;;;;;6.23;4.40;;;15.10;99.90;;;;;;5070627;28;20451;-69
2022/06/06 01:27:21;;;;;;;5.00;4.20;;;15.00;99.90;;;;;;5070658;28;20451;-70
2022/06/06 01:29:57;;;;;;;4.83;4.33;;;14.90;99.90;;;;;;5069803;28;20447;-69
2022/06/06 01:32:27;;;;;;;6.17;4.73;;;14.90;99.90;;;;;;5070574;28;20828;-70
2022/06/06 01:34:55;;;;;;;5.60;4.63;;;14.90;99.90;;;;;;5070282;28;20855;-70
2022/06/06 01:37:25;;;;;;;5.90;4.57;;;14.90;99.90;;;;;;5070344;28;20441;-70
2022/06/06 01:39:53;;;;;;;6.53;4.10;;;14.90;99.90;;;;;;5069684;28;20449;-70
2022/06/06 01:42:24;;;;;;;7.07;4.80;;;14.90;99.90;;;;;;5069697;28;20852;-70
2022/06/06 01:44:57;;;;;;;5.00;4.33;;;14.90;99.90;;;;;;5070076;28;20451;-69
2022/06/06 01:47:30;;;;;;;6.30;4.67;;;14.90;99.90;;;;;;5070299;28;20451;-70
2022/06/06 01:49:59;;;;;;;4.83;4.33;;;14.90;99.90;;;;;;5069413;28;20451;-70
2022/06/06 01:52:26;;;;;;;7.47;5.00;;;14.90;99.90;;;;;;5069827;28;20467;-69
2022/06/06 01:54:55;;;;;;;5.40;4.90;;;14.80;99.90;;;;;;5069840;28;20447;-69
2022/06/06 01:57:23;;;;;;;5.80;4.90;;;14.70;99.90;;;;;;5070061;28;20813;-70
2022/06/06 01:59:53;;;;;;;7.47;5.00;;;14.60;99.90;;;;;;5068986;28;20451;-69
2022/06/06 02:02:20;;;;;;;8.13;5.20;;;14.50;99.90;;;;;;5069359;28;20498;-70
2022/06/06 02:04:47;;;;;;;6.97;4.90;;;14.40;99.90;;;;;;5069382;28;20455;-70
2022/06/06 02:07:14;;;;;;;8.67;5.13;;;14.30;99.90;;;;;;5069690;28;20486;-70
2022/06/06 02:09:41;;;;;;;6.70;5.07;;;14.30;99.90;;;;;;5069788;28;20455;-69
2022/06/06 02:12:11;;;;;;;6.50;5.00;;;14.30;99.90;;;;;;5069312;28;20823;-68
2022/06/06 02:14:39;;;;;;;6.27;5.13;;;14.20;99.90;;;;;;5069230;28;20461;-70
2022/06/06 02:17:07;;;;;;;6.87;5.10;;;14.20;99.90;;;;;;5069641;28;20450;-70
2022/06/06 02:19:34;;;;;;;5.00;4.53;;;14.10;99.90;;;;;;5069451;28;20474;-70
2022/06/06 02:22:01;;;;;;;6.20;5.30;;;14.10;99.90;;;;;;5068566;28;21286;-70
2022/06/06 02:24:28;;;;;;;5.50;4.97;;;14.00;99.90;;;;;;5069307;28;20443;-69
2022/06/06 02:26:55;;;;;;;7.10;5.40;;;14.00;99.90;;;;;;5069475;28;20827;-70
2022/06/06 02:29:22;;;;;;;6.17;5.10;;;13.90;99.90;;;;;;5069501;28;20533;-70
2022/06/06 02:31:48;;;;;;;8.20;5.90;;;13.90;99.90;;;;;;5068664;28;20463;-70
2022/06/06 02:34:17;;;;;;;6.57;5.60;;;13.90;99.90;;;;;;5069125;28;20508;-68
2022/06/06 02:36:43;;;;;;;7.13;6.27;;;13.80;99.90;;;;;;5069518;28;20479;-70
2022/06/06 02:39:10;;;;;;;6.40;5.70;;;13.70;99.90;;;;;;5069508;28;20812;-70
2022/06/06 02:41:37;;;;;;;8.60;5.83;;;13.60;99.90;;;;;;5068504;28;20828;-70
2022/06/06 02:44:05;;;;;;;7.13;6.23;;;13.60;99.90;;;;;;5069644;28;20483;-69
2022/06/06 02:46:32;;;;;;;6.90;6.20;;;13.50;99.90;;;;;;5068916;28;20824;-70
2022/06/06 02:48:59;;;;;;;6.67;5.90;;;13.50;99.90;;;;;;5069536;28;20987;-70
2022/06/06 02:51:27;;;;;;;8.17;6.20;;;13.40;99.90;;;;;;5068613;28;20471;-70
2022/06/06 02:53:54;;;;;;;7.70;6.27;;;13.50;99.90;;;;;;5069262;28;20953;-69
2022/06/06 02:56:21;;;;;;;7.23;6.53;;;13.60;99.90;;;;;;5068988;28;20453;-69
2022/06/06 02:58:47;;;;;;;7.77;6.87;;;13.70;99.90;;;;;;5069262;28;20455;-70
2022/06/06 03:01:14;;;;;;;8.00;7.13;;;13.60;99.90;;;;;;5068010;28;20479;-70
2022/06/06 03:03:41;;;;;;;7.07;6.43;;;13.60;99.90;;;;;;5069041;28;20933;-70
2022/06/06 03:06:23;;;;;;;7.00;6.30;;;13.60;99.90;;;;;;5068812;28;20450;-70
2022/06/06 03:09:03;;;;;;;9.90;6.90;;;13.60;99.90;;;;;;5069158;28;20447;-70
2022/06/06 03:11:45;;;;;;;9.80;7.20;;;13.50;99.90;;;;;;5070870;28;20459;-69
2022/06/06 03:14:26;;;;;;;8.97;7.17;;;13.50;99.90;;;;;;5072865;28;20454;-70
2022/06/06 03:22:59;;;;;;;8.10;5.80;;;13.60;99.90;;;;;;5072528;28;20559;-70
2022/06/06 03:25:36;;;;;;;8.20;6.50;;;13.50;99.90;;;;;;5072305;28;20953;-69
2022/06/06 03:28:12;;;;;;;7.87;7.07;;;13.50;99.90;;;;;;5072515;28;20457;-68
2022/06/06 03:30:48;;;;;;;7.67;6.73;;;13.50;99.90;;;;;;5071528;28;20463;-70
2022/06/06 03:33:28;;;;;;;7.50;6.80;;;13.70;99.90;;;;;;5072663;28;20447;-70
2022/06/06 03:36:03;;;;;;;9.70;7.10;;;13.80;99.90;;;;;;5072233;28;20446;-70
2022/06/06 03:38:37;;;;;;;7.53;6.73;;;13.80;99.90;;;;;;5072365;28;20449;-70
2022/06/06 03:41:12;;;;;;;7.13;6.07;;;14.00;99.90;;;;;;5071230;28;20466;-70
2022/06/06 03:43:47;;;;;;;7.53;6.67;;;14.00;99.90;;;;;;5072375;28;20446;-70
2022/06/06 03:46:23;;;;;;;6.90;6.00;;;14.10;99.90;;;;;;5072034;28;20447;-69
2022/06/06 03:48:59;;;;;;;9.23;6.77;;;14.00;99.90;;;;;;5072152;28;20454;-70
2022/06/06 03:51:34;;;;;;;7.80;6.70;;;14.00;99.90;;;;;;5071081;28;21008;-70
2022/06/06 03:54:11;;;;;;;14.10;6.87;;;14.00;99.90;;;;;;5072227;28;20546;-70
2022/06/06 03:56:52;;;;;;;7.27;6.43;;;14.00;99.90;;;;;;5071699;28;20826;-70
2022/06/06 03:59:20;;;;;;;11.03;7.43;;;14.00;99.90;;;;;;5071926;28;20551;-70
2022/06/06 04:01:48;;;;;;;8.43;7.53;;;13.80;99.90;;;;;;5070794;28;20491;-70
2022/06/06 04:04:16;;;;;;;9.97;7.57;;;13.80;99.90;;;;;;5069036;28;20458;-68
2022/06/06 04:06:43;;;;;;;11.17;7.70;;;13.80;99.90;;;;;;5072279;28;20538;-70
2022/06/06 04:09:10;;;;;;;6.77;6.07;;;13.80;99.90;;;;;;5072250;28;20450;-71
2022/06/06 04:11:51;;;;;;;10.70;6.30;;;13.70;99.90;;;;;;5070528;28;20467;-70
2022/06/06 04:14:31;;;;;;;9.10;6.60;;;13.80;99.90;;;;;;5071977;28;20889;-69
2022/06/06 04:17:11;;;;;;;8.73;7.40;;;13.70;99.90;;;;;;5072054;28;20477;-71
2022/06/06 04:19:46;;;;;;;15.40;7.20;;;13.70;99.90;;;;;;5071812;28;20459;-70
2022/06/06 04:22:23;;;;;;;8.50;6.17;;;13.90;99.90;;;;;;5071096;28;20487;-71
2022/06/06 04:25:02;;;;;;;7.50;6.80;;;14.00;99.90;;;;;;5071543;28;20451;-70
2022/06/06 04:27:40;;;;;;;11.50;7.00;;;14.10;99.90;;;;;;5071496;28;20451;-70
2022/06/06 04:30:12;;;;;;;8.87;7.03;;;14.10;99.90;;;;;;5070733;28;20451;-70
2022/06/06 04:32:50;;;;;;;8.40;7.60;;;14.10;99.90;;;;;;5071284;28;20449;-70
2022/06/06 04:35:27;;;;;;;10.20;8.13;;;14.20;99.90;;;;;;5071134;28;20447;-70
2022/06/06 04:38:02;;;;;;;9.97;7.90;;;14.20;99.90;;;;;;5071335;28;20466;-71
2022/06/06 04:40:36;;;;;;;8.97;7.57;;;14.20;99.90;;;;;;5070217;28;20463;-70
2022/06/06 04:43:12;;;;;;;10.50;7.47;;;14.30;99.90;;;;;;5070883;28;20488;-70
2022/06/06 04:45:47;;;;;;;11.90;8.30;;;14.40;99.90;;;;;;5070861;28;20451;-69
2022/06/06 04:48:15;;;;;;;9.20;7.67;;;14.50;99.90;;;;;;5071116;28;20447;-71
2022/06/06 04:50:44;;;;;;;8.80;6.40;;;14.50;99.90;;;;;;5070155;28;20459;-71
2022/06/06 04:53:15;;;;;;;8.70;7.63;;;14.50;99.90;;;;;;5070763;28;20930;-70
2022/06/06 04:55:43;;;;;;;8.17;6.83;;;14.70;99.90;;;;;;5070353;28;20447;-71
2022/06/06 04:58:13;;;;;;;7.03;6.30;;;14.70;99.90;;;;;;5070883;28;20482;-71
2022/06/06 05:00:42;;;;;;;10.60;6.40;;;14.80;99.90;;;;;;5069839;28;20479;-70
2022/06/06 05:03:09;;;;;;;6.70;5.93;;;14.90;99.90;;;;;;5070622;28;20528;-71
2022/06/06 05:05:48;;;;;;;10.10;6.90;;;15.00;99.90;;;;;;5070276;28;20449;-70
2022/06/06 05:08:31;;;;;;;7.13;6.37;;;15.10;99.90;;;;;;5070411;28;20439;-71
2022/06/06 05:11:23;;;;;;;6.43;5.83;;;15.30;99.90;;;;;;5069636;28;20459;-70
2022/06/06 05:14:20;;;;;;;5.97;5.47;;;15.50;99.90;;;;;;5070414;28;20443;-71
2022/06/06 05:17:00;;;;;;;12.03;6.00;;;15.60;99.90;;;;;;5015825;28;20456;-70
2022/06/06 05:19:59;;;;;;;6.27;5.67;;;15.80;99.90;;;;;;5070526;28;20534;-71
2022/06/06 05:22:48;;;;;;;8.90;6.20;;;16.00;99.90;;;;;;5054681;28;20489;-70
2022/06/06 05:25:37;;;;;;;9.10;6.37;;;16.40;99.90;;;;;;5070103;28;20534;-71
2022/06/06 05:28:22;;;;;;;8.50;5.37;;;16.90;99.90;;;;;;5072625;28;20445;-69
2022/06/06 05:30:56;;;;;;;5.43;4.77;;;17.30;99.90;;;;;;5069372;28;20471;-71
2022/06/06 05:33:28;;;;;;;8.77;5.37;;;17.80;99.90;;;;;;5069474;28;20450;-71
2022/06/06 05:36:24;;;;;;;4.60;4.10;;;18.10;99.90;;;;;;5069881;28;20446;-70
2022/06/06 05:39:16;;;;;;;5.50;5.00;;;18.30;99.90;;;;;;5070087;28;20447;-70
2022/06/06 05:41:59;;;;;;;7.43;5.17;;;18.30;99.90;;;;;;5068968;28;20495;-70
2022/06/06 05:44:39;;;;;;;5.60;4.40;;;18.50;99.90;;;;;;5069892;28;20443;-71
2022/06/06 05:47:16;;;;;;;5.40;4.13;;;18.60;99.90;;;;;;5069983;28;20455;-71
2022/06/06 05:49:54;;;;;;;4.67;4.03;;;18.60;99.90;;;;;;5069769;28;20950;-71
2022/06/06 05:52:45;;;;;;;4.53;3.90;;;18.60;99.90;;;;;;5070217;28;20554;-71
2022/06/06 05:55:26;;;;;;;5.20;3.57;;;18.80;99.90;;;;;;5069738;28;20455;-71
2022/06/06 05:58:09;;;;;;;6.90;4.63;;;18.90;99.90;;;;;;5069949;28;20921;-71
2022/06/06 06:00:47;;;;;;;4.30;3.90;;;18.90;99.90;;;;;;5069023;28;20481;-71
2022/06/06 06:03:53;;;;;;;4.93;4.07;;;19.10;99.90;;;;;;5069628;28;20488;-71
2022/06/06 06:06:29;;;;;;;6.00;4.70;;;19.10;99.90;;;;;;5069410;28;20471;-71
2022/06/06 06:09:23;;;;;;;4.80;4.30;;;19.20;99.90;;;;;;5070023;28;20444;-71
2022/06/06 06:12:29;;;;;;;5.10;4.40;;;19.20;99.90;;;;;;5068993;28;20544;-71
2022/06/06 06:15:10;;;;;;;5.27;4.43;;;19.30;99.90;;;;;;5069202;28;20820;-71
2022/06/06 06:17:40;;;;;;;4.77;4.37;;;19.50;99.90;;;;;;5069590;28;20458;-71
2022/06/06 06:20:10;;;;;;;5.40;4.20;;;19.80;99.90;;;;;;5068942;28;20469;-71
2022/06/06 06:22:41;;;;;;;5.00;4.03;;;20.10;99.90;;;;;;5069678;28;20483;-71
2022/06/06 06:25:10;;;;;;;5.53;4.03;;;20.30;99.90;;;;;;5069125;28;20454;-71
2022/06/06 06:27:38;;;;;;;5.37;4.00;;;20.40;99.90;;;;;;5069707;28;20459;-70
2022/06/06 06:30:08;;;;;;;4.20;3.80;;;20.50;99.90;;;;;;5068972;28;20506;-71
2022/06/06 06:33:07;;;;;;;4.53;3.80;;;20.50;99.90;;;;;;5069550;28;20446;-71
2022/06/06 06:35:41;;;;;;;4.27;3.87;;;20.70;99.90;;;;;;5069117;28;20439;-71
2022/06/06 06:38:28;;;;;;;6.50;3.80;;;20.70;99.90;;;;;;5069724;28;20442;-71
2022/06/06 06:41:03;;;;;;;4.63;3.77;;;20.70;99.90;;;;;;5068943;28;20463;-71
2022/06/06 06:43:46;;;;;;;4.40;4.00;;;20.80;99.90;;;;;;5069330;28;20475;-71
2022/06/06 06:46:17;;;;;;;7.10;4.07;;;20.70;99.90;;;;;;5073520;28;20461;-72
2022/06/06 06:48:46;;;;;;;4.97;3.50;;;20.80;99.90;;;;;;5073904;28;20811;-71
2022/06/06 06:51:21;;;;;;;6.60;4.17;;;20.90;99.90;;;;;;5072800;28;20459;-71
2022/06/06 06:54:25;;;;;;;4.00;3.60;;;21.20;99.90;;;;;;5073575;28;20811;-71
2022/06/06 06:57:11;;;;;;;4.20;3.57;;;21.30;99.90;;;;;;5073638;28;20438;-70
2022/06/06 06:59:53;;;;;;;10.30;4.03;;;21.40;99.90;;;;;;5073304;28;20442;-70
2022/06/06 07:08:36;;;;;;;4.40;4.00;;;21.10;99.90;;;;;;5073339;28;20418;-71
2022/06/06 07:11:29;;;;;;;5.03;4.50;;;20.90;99.90;;;;;;5072043;28;20841;-70
2022/06/06 07:14:05;;;;;;;4.63;4.20;;;21.00;99.90;;;;;;5072901;28;20941;-71
2022/06/06 07:16:35;;;;;;;4.67;3.90;;;21.10;99.90;;;;;;5072572;28;20473;-71
2022/06/06 07:19:08;;;;;;;4.00;3.53;;;21.00;99.90;;;;;;5072722;28;20442;-71
2022/06/06 07:21:36;;;;;;;4.00;3.60;;;21.20;99.90;;;;;;5072049;28;20473;-69
2022/06/06 07:24:06;;;;;;;5.30;4.57;;;21.40;99.90;;;;;;5072484;28;21014;-71
2022/06/06 07:26:38;;;;;;;4.70;4.23;;;21.60;99.90;;;;;;5072345;28;20443;-71
2022/06/06 07:29:06;;;;;;;4.40;4.00;;;21.50;99.90;;;;;;5072615;28;20456;-71
2022/06/06 07:31:58;;;;;;;4.97;4.13;;;21.60;99.90;;;;;;5071634;28;20835;-70
2022/06/06 07:34:42;;;;;;;6.50;4.10;;;21.80;99.90;;;;;;5071851;28;20443;-69
2022/06/06 07:37:21;;;;;;;5.13;4.60;;;22.00;99.90;;;;;;5072404;28;20447;-71
2022/06/06 07:39:56;;;;;;;6.60;4.30;;;21.80;99.90;;;;;;5071724;28;21093;-70
2022/06/06 07:42:41;;;;;;;6.30;4.47;;;22.10;99.90;;;;;;5071963;28;20504;-71
2022/06/06 07:45:17;;;;;;;4.67;4.03;;;22.60;99.90;;;;;;5072029;28;20538;-70
2022/06/06 07:48:14;;;;;;;4.40;4.00;;;23.00;99.90;;;;;;5072237;28;20447;-70
2022/06/06 07:50:47;;;;;;;4.07;3.67;;;23.50;99.90;;;;;;5071108;28;20840;-71
2022/06/06 07:53:25;;;;;;;4.00;3.60;;;23.80;99.90;;;;;;5071987;28;20435;-72
2022/06/06 07:55:59;;;;;;;5.83;4.13;;;24.10;99.90;;;;;;5071172;28;20814;-71
2022/06/06 07:58:35;;;;;;;4.23;3.83;;;24.30;99.90;;;;;;5072089;28;20959;-71
2022/06/06 08:01:11;;;;;;;4.80;4.05;;;24.60;99.90;;;;;;5070526;28;20441;-72
2022/06/06 08:03:49;;;;;;;4.77;3.90;;;24.70;99.90;;;;;;5071978;28;20710;-71
2022/06/06 08:06:36;;;;;;;5.17;4.07;;;24.70;99.90;;;;;;5071643;28;20819;-72
2022/06/06 08:09:31;;;;;;;4.63;3.93;;;24.30;99.90;;;;;;5071903;28;20443;-71
2022/06/06 08:12:12;;;;;;;4.00;3.60;;;24.40;99.90;;;;;;5070746;28;20882;-72
2022/06/06 08:14:57;;;;;;;4.77;3.97;;;24.70;99.90;;;;;;5071308;28;20453;-71
2022/06/06 08:17:28;;;;;;;4.90;4.30;;;24.40;99.90;;;;;;5071543;28;20451;-71
2022/06/06 08:20:09;;;;;;;8.83;5.00;;;24.20;99.90;;;;;;5070741;28;21150;-70
2022/06/06 08:22:41;;;;;;;5.20;4.60;;;24.40;99.90;;;;;;5071297;28;20968;-71
2022/06/06 08:25:08;;;;;;;4.77;3.80;;;24.70;99.90;;;;;;5071115;28;20512;-71
2022/06/06 08:27:36;;;;;;;8.77;4.37;;;25.10;99.90;;;;;;5071367;28;20449;-71
2022/06/06 08:30:06;;;;;;;4.93;3.97;;;25.50;99.90;;;;;;5070476;28;20451;-71
2022/06/06 08:32:33;;;;;;;5.80;4.03;;;25.60;99.90;;;;;;5071424;28;20447;-72
2022/06/06 08:35:00;;;;;;;6.20;4.73;;;25.30;99.90;;;;;;5070909;28;21012;-71
2022/06/06 08:37:43;;;;;;;4.07;3.67;;;25.10;99.90;;;;;;5071120;28;20949;-71
2022/06/06 08:40:40;;;;;;;3.70;3.40;;;24.90;99.90;;;;;;5070275;28;20823;-71
2022/06/06 08:43:18;;;;;;;4.53;3.77;;;24.90;99.90;;;;;;5065733;28;20573;-72
2022/06/06 08:45:52;;;;;;;4.53;3.60;;;25.20;99.90;;;;;;5070991;28;20434;-71
2022/06/06 08:48:41;;;;;;;4.67;3.70;;;25.30;99.90;;;;;;5071159;28;20483;-71
2022/06/06 08:51:24;;;;;;;6.90;4.40;;;24.80;99.90;;;;;;5069986;28;20479;-71
2022/06/06 08:54:36;;;;;;;6.10;4.20;;;24.30;99.90;;;;;;5071048;28;20439;-71
2022/06/06 08:57:39;;;;;;;4.20;3.23;;;24.30;99.90;;;;;;5055306;28;20533;-71
2022/06/06 09:00:23;;;;;;;3.77;3.40;;;23.90;99.90;;;;;;5070181;28;20447;-71
2022/06/06 09:03:39;;;;;;;3.80;3.10;;;23.40;99.90;;;;;;5070702;28;20566;-70
2022/06/06 09:06:45;;;;;;;5.90;3.27;;;23.30;99.90;;;;;;5070160;28;20969;-71
2022/06/06 09:09:57;;;;;;;6.43;3.57;;;23.50;99.90;;;;;;5043989;28;20973;-71
2022/06/06 09:13:01;;;;;;;6.33;3.43;;;23.80;99.90;;;;;;5070626;28;20467;-71
2022/06/06 09:16:09;;;;;;;3.40;2.90;;;24.00;99.90;;;;;;5070281;28;20443;-70
2022/06/06 09:19:22;;;;;;;4.00;2.60;;;24.00;99.90;;;;;;5070617;28;20992;-71
2022/06/06 09:22:23;;;;;;;3.23;2.33;;;23.90;99.90;;;;;;5069827;28;20838;-71
2022/06/06 09:25:21;;;;;;;3.00;2.23;;;23.60;99.90;;;;;;5070442;28;20487;-71
2022/06/06 09:28:27;;;;;;;4.20;2.80;;;23.00;99.90;;;;;;5070708;28;20450;-70
2022/06/06 09:31:19;;;;;;;3.43;2.50;;;22.70;99.90;;;;;;5069887;28;20549;-70
2022/06/06 09:34:19;;;;;;;4.10;2.20;;;22.80;99.90;;;;;;5067908;28;20454;-70
2022/06/06 09:36:54;;;;;;;3.40;2.60;;;22.90;99.90;;;;;;5039450;28;20435;-70
2022/06/06 09:39:36;;;;;;;4.20;3.33;;;22.70;99.90;;;;;;5070268;28;20521;-71
2022/06/06 09:42:17;;;;;;;3.50;2.80;;;22.60;99.90;;;;;;5069923;28;20455;-70
2022/06/06 09:45:09;;;;;;;3.23;2.70;;;22.80;99.90;;;;;;5069833;28;20490;-71
2022/06/06 09:48:02;;;;;;;3.43;2.53;;;23.10;99.90;;;;;;5070064;28;20446;-71
2022/06/06 09:51:09;;;;;;;2.93;2.60;;;23.20;99.90;;;;;;5069277;28;20459;-72
2022/06/06 10:00:27;;;;;;;3.50;2.40;;;23.90;99.90;;;;;;5068883;28;20502;-70
2022/06/06 10:03:37;;;;;;;3.97;2.20;;;24.50;99.40;;;;;;5069670;28;20501;-71
2022/06/06 10:06:37;;;;;;;3.00;2.30;;;25.10;99.40;;;;;;5069230;28;20435;-70
2022/06/06 10:09:55;;;;;;;3.70;2.20;;;25.50;97.60;;;;;;5069853;28;20498;-71
2022/06/06 10:12:47;;;;;;;4.13;2.80;;;25.20;97.80;;;;;;5069387;28;20499;-70
2022/06/06 10:15:30;;;;;;;3.60;2.50;;;25.40;98.80;;;;;;5069249;28;20979;-71
2022/06/06 10:18:25;;;;;;;6.07;2.30;;;26.10;99.30;;;;;;5069653;28;20443;-71
2022/06/06 10:21:18;;;;;;;3.30;2.03;;;27.30;97.40;;;;;;5072386;28;20463;-71
2022/06/06 10:24:12;;;;;;;3.27;2.13;;;27.50;95.60;;;;;;5042472;28;20569;-71
2022/06/06 10:26:59;;;;;;;3.27;2.50;;;27.70;95.60;;;;;;5073333;28;20455;-71
2022/06/06 10:30:12;;;;;;;3.43;2.27;;;27.90;93.60;;;;;;5073730;28;20439;-71
2022/06/06 10:33:04;;;;;;;4.63;3.00;;;27.20;94.10;;;;;;5073487;28;20446;-71
2022/06/06 10:35:41;;;;;;;2.77;2.20;;;27.60;94.80;;;;;;5073356;28;20449;-71
2022/06/06 10:38:34;;;;;;;2.90;2.43;;;27.30;94.40;;;;;;5073647;28;20453;-72
2022/06/06 10:41:10;;;;;;;3.30;2.20;;;27.50;94.30;;;;;;5073024;28;20470;-71
2022/06/06 10:43:53;;;;;;;3.37;1.90;;;27.90;92.80;;;;;;5073266;28;20482;-72
2022/06/06 10:46:25;;;;;;;3.80;2.27;;;28.00;91.90;;;;;;5073243;28;20451;-69
2022/06/06 10:49:11;;;;;;;3.40;2.30;;;27.20;92.30;;;;;;5073274;28;20824;-71
2022/06/06 10:52:12;;;;;;;5.70;2.70;;;26.50;93.20;;;;;;5072337;28;20471;-71
2022/06/06 10:55:21;;;;;;;6.80;2.90;;;25.70;93.70;;;;;;5072792;28;20446;-70
2022/06/06 10:58:28;;;;;;;3.50;2.40;;;25.00;96.10;;;;;;5073062;28;20450;-70
2022/06/06 11:01:26;;;;;;;2.70;2.03;;;24.90;95.60;;;;;;5072183;28;20549;-71
2022/06/06 11:04:39;;;;;;;3.80;2.43;;;25.30;96.30;;;;;;5072972;28;20510;-71
2022/06/06 11:07:35;;;;;;;4.00;2.33;;;25.20;95.40;;;;;;5073069;28;20453;-71
2022/06/06 11:10:20;;;;;;;2.80;2.17;;;25.80;95.10;;;;;;5072210;28;20453;-71
2022/06/06 11:13:16;;;;;;;2.87;2.43;;;26.30;94.40;;;;;;5072843;28;20457;-71
2022/06/06 11:15:59;;;;;;;3.80;2.70;;;26.90;94.80;;;;;;5072534;28;21204;-70
2022/06/06 11:19:19;;;;;;;4.50;2.30;;;26.90;93.40;;;;;;5072783;28;20445;-70
2022/06/06 11:22:09;;;;;;;5.87;2.53;;;27.10;94.40;;;;;;5072055;28;20482;-71
2022/06/06 11:24:47;;;;;;;4.63;2.10;;;26.90;94.20;;;;;;5072309;28;20505;-71
2022/06/06 11:27:43;;;;;;;4.17;2.43;;;27.00;94.10;;;;;;5072615;28;20960;-71
2022/06/06 11:30:28;;;;;;;3.43;2.40;;;27.40;93.20;;;;;;5071556;28;20451;-72
2022/06/06 11:33:30;;;;;;;3.83;2.23;;;27.50;91.10;;;;;;5072348;28;20447;-71
2022/06/06 11:36:10;;;;;;;2.60;2.30;;;26.60;92.60;;;;;;5072412;28;20492;-71
2022/06/06 11:39:06;;;;;;;3.60;2.47;;;26.00;94.90;;;;;;5072633;28;20447;-71
2022/06/06 11:41:53;;;;;;;7.07;2.47;;;26.30;95.00;;;;;;5049426;28;20464;-69
2022/06/06 11:45:04;;;;;;;3.17;2.30;;;27.40;94.10;;;;;;5072103;28;21000;-71
2022/06/06 11:47:53;;;;;;;5.03;1.90;;;28.10;90.50;;;;;;5035965;28;20446;-71
2022/06/06 11:51:04;;;;;;;3.27;2.17;;;28.10;87.40;;;;;;5071312;28;20442;-70
2022/06/06 11:54:04;;;;;;;2.30;1.83;;;27.70;86.70;;;;;;5072179;28;20439;-70
2022/06/06 11:57:01;;;;;;;3.20;1.80;;;27.00;88.00;;;;;;5071817;28;20529;-70
2022/06/06 12:00:01;;;;;;;2.70;2.03;;;26.50;88.60;;;;;;5072264;28;20454;-71
2022/06/06 12:03:04;;;;;;;2.97;2.00;;;26.30;91.70;;;;;;5072127;28;20459;-71
2022/06/06 12:05:56;;;;;;;3.40;2.13;;;26.10;91.80;;;;;;5069343;28;20487;-71
2022/06/06 12:08:43;;;;;;;2.60;2.10;;;25.90;91.60;;;;;;5072218;28;20490;-71
2022/06/06 12:12:13;;;;;;;3.07;2.07;;;25.30;91.10;;;;;;5071165;28;20553;-71
2022/06/06 12:15:09;;;;;;;2.93;2.20;;;24.70;92.60;;;;;;5009497;28;20464;-70
2022/06/06 12:18:06;;;;;;;2.60;2.13;;;24.20;92.80;;;;;;5072007;28;20813;-71
2022/06/06 12:21:00;;;;;;;4.03;2.10;;;24.00;93.50;;;;;;5066430;28;20475;-71
2022/06/06 12:23:44;;;;;;;3.93;2.30;;;24.60;93.30;;;;;;5071468;28;20473;-70
2022/06/06 12:26:28;;;;;;;3.60;2.50;;;24.90;93.80;;;;;;5071349;28;20447;-70
2022/06/06 12:29:33;;;;;;;3.20;2.20;;;24.70;92.40;;;;;;5071675;28;20443;-70
2022/06/06 12:32:14;;;;;;;3.60;2.40;;;24.40;93.00;;;;;;5070520;28;20474;-71
2022/06/06 12:34:47;;;;;;;3.07;2.20;;;24.20;93.90;;;;;;5071142;28;20477;-71
2022/06/06 12:37:19;;;;;;;2.80;2.00;;;24.10;94.20;;;;;;5071180;28;20449;-70
2022/06/06 12:39:58;;;;;;;3.87;2.43;;;23.90;93.30;;;;;;5070605;28;20457;-68
2022/06/06 12:42:36;;;;;;;3.63;2.57;;;24.30;94.30;;;;;;5070846;28;20528;-71
2022/06/06 12:45:28;;;;;;;2.80;2.23;;;25.50;93.00;;;;;;5070865;28;20496;-71
2022/06/06 12:48:07;;;;;;;3.10;2.40;;;25.80;92.10;;;;;;5071119;28;20817;-70
2022/06/06 12:50:48;;;;;;;3.50;2.27;;;26.20;91.80;;;;;;5070055;28;20467;-72
2022/06/06 12:53:43;;;;;;;3.00;2.17;;;27.10;91.90;;;;;;5071215;28;20446;-71
2022/06/06 12:56:20;;;;;;;4.07;2.17;;;27.70;90.30;;;;;;5070473;28;20443;-71
2022/06/06 12:58:56;;;;;;;3.80;2.50;;;27.90;90.70;;;;;;5070796;28;20455;-71
2022/06/06 13:01:41;;;;;;;2.87;1.93;;;27.30;89.00;;;;;;5069799;28;20851;-71
2022/06/06 13:04:49;;;;;;;4.43;2.20;;;26.90;91.20;;;;;;5070694;28;20486;-71
2022/06/06 13:07:26;;;;;;;3.63;2.20;;;26.20;91.80;;;;;;5070496;28;20453;-71
2022/06/06 13:10:12;;;;;;;3.40;2.50;;;25.50;92.50;;;;;;5070093;28;20451;-71
2022/06/06 13:12:52;;;;;;;3.00;2.67;;;25.00;93.30;;;;;;5070542;28;20458;-70
2022/06/06 13:15:26;;;;;;;2.90;2.37;;;24.70;94.10;;;;;;5070167;28;20447;-71
2022/06/06 13:18:11;;;;;;;4.30;2.70;;;24.50;95.30;;;;;;5070705;28;20445;-71
2022/06/06 13:20:46;;;;;;;4.00;2.80;;;24.30;94.90;;;;;;5069745;28;20471;-71
2022/06/06 13:23:25;;;;;;;4.57;2.90;;;24.10;94.60;;;;;;5070636;28;20457;-70
2022/06/06 13:26:08;;;;;;;4.27;2.70;;;23.80;95.60;;;;;;5069947;28;20573;-71
2022/06/06 13:28:49;;;;;;;4.23;2.33;;;23.60;96.80;;;;;;5070468;28;20447;-70
2022/06/06 13:31:33;;;;;;;3.53;2.50;;;23.40;97.40;;;;;;5069389;28;20498;-70
2022/06/06 13:34:12;;;;;;;2.40;2.10;;;23.10;97.60;;;;;;5070259;28;20867;-70
2022/06/06 13:36:56;;;;;;;3.43;2.13;;;22.90;96.40;;;;;;5070040;28;20447;-70
2022/06/06 13:39:39;;;;;;;5.10;1.83;;;22.90;96.40;;;;;;5070234;28;20465;-70
2022/06/06 13:42:15;;;;;;;4.03;2.10;;;22.90;95.30;;;;;;5069464;28;20470;-70
2022/06/06 13:45:10;;;;;;;2.30;1.87;;;22.80;94.40;;;;;;5069586;28;20482;-70
2022/06/06 13:48:00;;;;;;;3.57;2.30;;;22.60;95.30;;;;;;5070207;28;20993;-70
2022/06/06 13:50:32;;;;;;;2.70;1.83;;;22.50;94.40;;;;;;5066569;28;20462;-69
2022/06/06 13:53:15;;;;;;;3.17;1.90;;;22.20;96.20;;;;;;5070053;28;20443;-70
2022/06/06 13:55:42;;;;;;;3.80;2.07;;;22.10;96.30;;;;;;5069336;28;20443;-70
2022/06/06 13:58:29;;;;;;;3.20;2.57;;;21.90;96.50;;;;;;5070012;28;20446;-69
2022/06/06 14:01:08;;;;;;;2.93;2.57;;;21.90;96.10;;;;;;5068823;28;20479;-70
2022/06/06 14:03:56;;;;;;;3.40;2.07;;;21.80;96.90;;;;;;5069968;28;20449;-71
2022/06/06 14:06:35;;;;;;;4.97;2.27;;;21.70;97.10;;;;;;5069639;28;20455;-70
2022/06/06 14:09:04;;;;;;;2.80;2.10;;;21.70;97.20;;;;;;5069917;28;20447;-70
2022/06/06 14:12:04;;;;;;;4.13;2.37;;;21.60;97.70;;;;;;5068912;28;20459;-71
2022/06/06 14:14:35;;;;;;;5.00;2.30;;;21.60;98.20;;;;;;5069305;28;20450;-70
2022/06/06 14:17:04;;;;;;;2.80;1.93;;;21.60;98.90;;;;;;5069882;28;20455;-70